Capital City, MI

8:37 AM EDT on September 03, 2015 (GMT -0400)
Capital City | | Change Station
CLOSE
Current Station
Airport
Location: Lansing,
Elevation: 873 ft
Nearby Weather Stations

Elev 873 ft 42.78 °N, 84.58 °W | Updated 35 minutes ago

Clear
Clear
70 °F
Feels Like 70 °F
N
5
Wind Variable Wind from South

Today
High -- | Low -- °F
--% Chance of Precip.
Yesterday
High -- | Low -- °F
Precip. -- in
7:04 AM 8:09 PM
Waning Gibbous, 70% visible
Pressure 29.97 in
Visibility 3.0 miles
Clouds Clear
Dew Point 68 °F
Humidity 93%
Rainfall 0.13 in
Snow Depth Not available.
UV 0 out of 12
Pollen 8.40 out of 12
Air Quality Not available.
Flu Activity Not available.
SPECI KLAN 031202Z 18004KT 3SM BR CLR 21/20 A2997 RMK AO2 T02110200
Pressure 29.97 in
Visibility 3.0 miles
Clouds Clear
Dew Point 68 °F
Humidity 93%
Rainfall 0.13 in
Snow Depth Not available.
UV 0 out of 12
Pollen 8.40 out of 12
Air Quality Not available.
Flu Activity Not available.
SPECI KLAN 031202Z 18004KT 3SM BR CLR 21/20 A2997 RMK AO2 T02110200

10-Day Weather Forecast

×

Almanac

Astronomy

Sep. 03, 2015 Rise Set
Actual Time
Civil Twilight
Nautical Twilight
Astronomical Twilight
Moon
Length of Visible Light
Length of Day
Tomorrow will be .
, % of the Moon is Illuminated

Today's Extremes

State Highs State Lows

Community

WunderPhotos

Upload Photos

1,851,946 photos uploaded!

WunderBlogs® & News

Nearby

Air Quality

  Air Quality AQ Index Pollutant
Not available.

Snow Depth

Station Depth Elevation

Earthquake Activity

City Distance Mag. Time & Date
Minimum magnitude displayed is 2.5.

Coastal Water Temperatures

Place Temperature

Stations

Nearby Weather Stations

Station Location Temp. Windchill Dew Point Humidity Wind Precip. Elev Updated Type